createdAt,value
2019-01-08T00:01:05.938Z,3.60
2019-01-08T00:03:34.935Z,4.97
2019-01-08T00:06:03.873Z,5.37
2019-01-08T00:08:32.659Z,4.63
2019-01-08T00:11:01.471Z,4.40
2019-01-08T00:13:30.267Z,4.43
2019-01-08T00:15:59.096Z,4.33
2019-01-08T00:18:27.886Z,5.20
2019-01-08T00:20:56.710Z,4.50
2019-01-08T00:23:25.831Z,5.50
2019-01-08T00:25:54.923Z,4.37
2019-01-08T00:28:24.056Z,4.43
2019-01-08T00:30:52.857Z,5.27
2019-01-08T00:33:21.931Z,5.30
2019-01-08T00:35:51.022Z,5.90
2019-01-08T00:38:19.827Z,6.13
2019-01-08T00:40:48.826Z,7.03
2019-01-08T00:43:17.639Z,6.90
2019-01-08T00:45:46.457Z,7.20
2019-01-08T00:48:15.372Z,8.00
2019-01-08T00:50:44.256Z,9.27
2019-01-08T00:53:13.390Z,10.20
2019-01-08T00:55:42.229Z,9.67
2019-01-08T00:58:11.043Z,9.23
2019-01-08T01:00:39.872Z,9.03
2019-01-08T01:03:09.442Z,11.27
2019-01-08T01:05:38.235Z,11.77
2019-01-08T01:08:07.120Z,9.30
2019-01-08T01:10:36.003Z,9.00
2019-01-08T01:13:04.867Z,6.80
2019-01-08T01:15:33.669Z,5.53
2019-01-08T01:18:02.461Z,3.03
2019-01-08T01:20:31.261Z,3.70
2019-01-08T01:23:00.055Z,3.40
2019-01-08T01:25:28.833Z,3.00
2019-01-08T01:27:57.895Z,3.83
2019-01-08T01:30:26.982Z,3.10
2019-01-08T01:32:56.012Z,3.23
2019-01-08T01:35:24.821Z,2.97
2019-01-08T01:37:53.667Z,3.10
2019-01-08T01:40:22.762Z,4.27
2019-01-08T01:42:51.565Z,4.07
2019-01-08T01:45:20.381Z,5.37
2019-01-08T01:47:49.167Z,3.83
2019-01-08T01:50:18.045Z,3.13
2019-01-08T01:52:46.847Z,2.47
2019-01-08T01:55:15.720Z,1.70
2019-01-08T01:57:44.571Z,2.47
2019-01-08T02:00:13.750Z,2.80
2019-01-08T02:02:42.992Z,3.17
2019-01-08T02:05:11.982Z,2.50
2019-01-08T02:07:41.104Z,2.20
2019-01-08T02:10:10.071Z,2.70
2019-01-08T02:12:38.863Z,2.47
2019-01-08T02:15:07.817Z,2.33
2019-01-08T02:17:36.619Z,2.30
2019-01-08T02:20:05.679Z,3.13
2019-01-08T02:22:34.555Z,2.00
2019-01-08T02:25:03.459Z,2.80
2019-01-08T02:27:32.262Z,2.30
2019-01-08T02:30:01.108Z,3.27
2019-01-08T02:32:29.970Z,3.77
2019-01-08T02:34:58.793Z,2.70
2019-01-08T02:37:27.911Z,4.43
2019-01-08T02:39:56.712Z,3.40
2019-01-08T02:42:25.870Z,2.90
2019-01-08T02:44:54.668Z,2.83
2019-01-08T02:47:23.884Z,3.73
2019-01-08T02:49:52.677Z,3.30
2019-01-08T02:52:21.584Z,3.20
2019-01-08T02:54:50.432Z,4.00
2019-01-08T02:57:19.473Z,5.57
2019-01-08T02:59:48.874Z,3.90
2019-01-08T03:02:17.817Z,3.33
2019-01-08T03:04:46.628Z,3.93
2019-01-08T03:07:15.563Z,5.10
2019-01-08T03:09:44.370Z,4.33
2019-01-08T03:12:13.180Z,2.93
2019-01-08T03:14:42.014Z,3.73
2019-01-08T03:17:10.799Z,3.73
2019-01-08T03:19:39.619Z,5.30
2019-01-08T03:22:08.756Z,4.10
2019-01-08T03:24:37.880Z,5.80
2019-01-08T03:27:06.750Z,3.67
2019-01-08T03:29:35.855Z,4.73
2019-01-08T03:32:05.003Z,5.33
2019-01-08T03:34:33.812Z,5.37
2019-01-08T03:37:02.639Z,3.43
2019-01-08T03:39:31.565Z,5.13
2019-01-08T03:42:00.439Z,4.03
2019-01-08T03:44:29.605Z,3.33
2019-01-08T03:47:17.913Z,4.47
2019-01-08T03:49:46.811Z,4.90
2019-01-08T03:52:16.058Z,4.20
2019-01-08T03:54:44.953Z,2.70
2019-01-08T03:57:13.767Z,3.27
2019-01-08T03:59:42.658Z,3.53
2019-01-08T04:02:11.617Z,4.23
2019-01-08T04:04:39.950Z,3.83
2019-01-08T04:07:08.749Z,2.83
2019-01-08T04:09:37.820Z,4.50
2019-01-08T04:12:06.606Z,4.60
2019-01-08T04:14:35.718Z,4.43
2019-01-08T04:17:04.510Z,3.93
2019-01-08T04:19:33.333Z,2.53
2019-01-08T04:22:02.140Z,3.30
2019-01-08T04:24:31.092Z,4.70
2019-01-08T04:27:00.133Z,3.60
2019-01-08T04:29:28.976Z,4.20
2019-01-08T04:31:57.783Z,2.43
2019-01-08T04:34:26.580Z,3.17
2019-01-08T04:36:55.371Z,4.00
2019-01-08T04:39:25.010Z,3.17
2019-01-08T04:41:53.963Z,5.07
2019-01-08T04:44:22.826Z,4.40
2019-01-08T04:46:51.648Z,2.70
2019-01-08T04:49:20.708Z,3.00
2019-01-08T04:51:49.583Z,3.27
2019-01-08T04:54:18.399Z,4.40
2019-01-08T04:56:47.207Z,3.33
2019-01-08T04:59:16.253Z,3.20
2019-01-08T05:01:45.144Z,3.93
2019-01-08T05:04:13.999Z,3.00
2019-01-08T05:06:42.939Z,3.40
2019-01-08T05:09:11.746Z,3.27
2019-01-08T05:11:40.531Z,3.30
2019-01-08T05:14:09.623Z,3.17
2019-01-08T05:16:38.411Z,2.77
2019-01-08T05:19:07.475Z,4.60
2019-01-08T05:21:36.609Z,2.87
2019-01-08T05:24:05.660Z,2.93
2019-01-08T05:26:34.497Z,3.97
2019-01-08T05:29:03.480Z,3.13
2019-01-08T05:31:32.891Z,4.17
2019-01-08T05:34:01.703Z,2.93
2019-01-08T05:36:30.523Z,3.10
2019-01-08T05:38:59.350Z,3.17
2019-01-08T05:41:28.192Z,3.70
2019-01-08T05:43:57.004Z,3.33
2019-01-08T05:46:25.808Z,4.13
2019-01-08T05:48:55.115Z,4.23
2019-01-08T05:51:23.914Z,3.57
2019-01-08T05:53:52.720Z,3.07
2019-01-08T05:56:21.786Z,4.77
2019-01-08T05:58:50.590Z,3.50
2019-01-08T06:01:19.775Z,5.17
2019-01-08T06:03:48.592Z,3.73
2019-01-08T06:06:17.420Z,3.20
2019-01-08T06:08:46.239Z,4.17
2019-01-08T06:11:15.065Z,3.70
2019-01-08T06:13:43.894Z,2.90
2019-01-08T06:16:13.091Z,3.60
2019-01-08T06:18:41.909Z,4.17
2019-01-08T06:21:11.086Z,3.67
2019-01-08T06:23:39.938Z,3.47
2019-01-08T06:26:08.886Z,3.30
2019-01-08T06:28:38.204Z,3.70
2019-01-08T06:31:07.143Z,3.33
2019-01-08T06:33:36.276Z,3.50
2019-01-08T06:36:05.128Z,4.93
2019-01-08T06:38:33.962Z,3.00
2019-01-08T06:41:02.831Z,3.20
2019-01-08T06:43:31.963Z,4.90
2019-01-08T06:46:00.735Z,3.80
2019-01-08T06:48:29.702Z,2.53
2019-01-08T06:50:58.786Z,2.87
2019-01-08T06:53:27.706Z,3.30
2019-01-08T06:55:56.623Z,3.33
2019-01-08T06:58:25.512Z,4.33
2019-01-08T07:00:54.352Z,4.30
2019-01-08T07:03:23.157Z,3.70
2019-01-08T07:05:51.966Z,3.80
2019-01-08T07:08:20.839Z,5.20
2019-01-08T07:10:49.723Z,4.53
2019-01-08T07:13:18.521Z,5.40
2019-01-08T07:15:47.370Z,3.10
2019-01-08T07:18:16.219Z,3.60
2019-01-08T07:20:45.036Z,5.17
2019-01-08T07:23:13.883Z,3.07
2019-01-08T07:25:42.799Z,5.30
2019-01-08T07:28:11.614Z,4.03
2019-01-08T07:30:41.684Z,4.60
2019-01-08T07:33:10.927Z,3.97
2019-01-08T07:35:39.758Z,4.00
2019-01-08T07:38:08.888Z,4.40
2019-01-08T07:40:37.724Z,4.13
2019-01-08T07:43:06.541Z,4.53
2019-01-08T07:45:35.364Z,3.90
2019-01-08T07:48:05.686Z,3.50
2019-01-08T07:50:34.502Z,2.90
2019-01-08T07:53:04.175Z,3.17
2019-01-08T07:55:32.979Z,5.00
2019-01-08T07:58:01.804Z,4.57
2019-01-08T08:00:31.663Z,4.03
2019-01-08T08:03:01.230Z,3.80
2019-01-08T08:05:30.351Z,4.20
2019-01-08T08:08:02.291Z,2.60
2019-01-08T08:10:31.622Z,3.07
2019-01-08T08:13:00.433Z,2.90
2019-01-08T08:15:29.420Z,3.87
2019-01-08T08:18:00.105Z,2.87
2019-01-08T08:20:28.908Z,2.73
2019-01-08T08:22:57.716Z,3.00
2019-01-08T08:25:26.639Z,3.20
2019-01-08T08:27:55.445Z,3.10
2019-01-08T08:30:26.206Z,3.33
2019-01-08T08:32:54.889Z,3.00
2019-01-08T08:35:23.706Z,4.33
2019-01-08T08:37:52.942Z,3.20
2019-01-08T08:40:21.786Z,2.83
2019-01-08T08:42:50.693Z,3.60
2019-01-08T08:45:19.875Z,2.43
2019-01-08T08:47:48.747Z,2.27
2019-01-08T08:50:17.566Z,3.00
2019-01-08T08:52:46.654Z,3.10
2019-01-08T08:55:15.460Z,3.40
2019-01-08T08:57:44.264Z,2.93
2019-01-08T09:00:13.252Z,3.57
2019-01-08T09:02:42.139Z,4.47
2019-01-08T09:05:12.260Z,3.40
2019-01-08T09:07:41.075Z,2.10
2019-01-08T09:10:10.230Z,2.20
2019-01-08T09:12:39.137Z,3.37
2019-01-08T09:15:08.099Z,2.90
2019-01-08T09:17:37.064Z,2.17
2019-01-08T09:20:06.730Z,2.73
2019-01-08T09:22:35.519Z,2.30
2019-01-08T09:25:04.818Z,4.07
2019-01-08T09:27:34.016Z,2.17
2019-01-08T09:30:02.923Z,2.87
2019-01-08T09:32:31.781Z,2.50
2019-01-08T09:35:00.766Z,4.70
2019-01-08T09:37:29.569Z,2.37
2019-01-08T09:39:58.485Z,2.13
2019-01-08T09:42:27.287Z,2.77
2019-01-08T09:44:56.259Z,2.43
2019-01-08T09:47:25.767Z,4.07
2019-01-08T09:49:54.591Z,2.10
2019-01-08T09:52:23.922Z,2.67
2019-01-08T09:54:52.740Z,2.20
2019-01-08T09:57:22.176Z,1.90
2019-01-08T09:59:51.237Z,2.73
2019-01-08T10:02:20.030Z,3.47
2019-01-08T10:04:49.463Z,2.13
2019-01-08T10:07:18.323Z,5.87
2019-01-08T10:09:47.108Z,2.90
2019-01-08T10:12:16.252Z,2.67
2019-01-08T10:14:45.076Z,2.53
2019-01-08T10:17:13.896Z,2.50
2019-01-08T10:19:43.062Z,2.70
2019-01-08T10:22:12.028Z,3.90
2019-01-08T10:24:41.219Z,3.90
2019-01-08T10:27:10.045Z,4.80
2019-01-08T10:29:39.187Z,3.73
2019-01-08T10:32:08.156Z,2.97
2019-01-08T10:34:37.619Z,3.40
2019-01-08T10:37:06.408Z,4.17
2019-01-08T10:39:35.213Z,3.30
2019-01-08T10:42:04.143Z,2.90
2019-01-08T10:44:32.927Z,2.83
2019-01-08T10:47:02.033Z,2.93
2019-01-08T10:49:31.067Z,3.20
2019-01-08T10:52:00.019Z,2.80
2019-01-08T10:54:29.119Z,2.80
2019-01-08T10:56:57.920Z,3.90
2019-01-08T10:59:26.828Z,3.23
2019-01-08T11:01:55.703Z,4.47
2019-01-08T11:04:24.746Z,3.43
2019-01-08T11:06:53.674Z,3.17
2019-01-08T11:09:22.573Z,3.57
2019-01-08T11:11:52.088Z,3.50
2019-01-08T11:14:20.890Z,2.23
2019-01-08T11:16:50.625Z,1.97
2019-01-08T11:19:19.587Z,3.90
2019-01-08T11:21:48.703Z,2.53
2019-01-08T11:24:29.856Z,2.57
2019-01-08T11:27:04.152Z,2.50
2019-01-08T11:29:32.986Z,3.47
2019-01-08T11:32:02.184Z,5.03
2019-01-08T11:34:31.086Z,2.80
2019-01-08T11:36:59.944Z,3.10
2019-01-08T11:39:28.746Z,3.63
2019-01-08T11:41:57.694Z,4.40
2019-01-08T11:44:26.630Z,3.60
2019-01-08T11:46:55.455Z,3.97
2019-01-08T11:49:24.356Z,3.23
2019-01-08T11:51:53.238Z,3.57
2019-01-08T11:54:22.072Z,4.70
2019-01-08T11:56:50.953Z,3.73
2019-01-08T11:59:20.076Z,3.27
2019-01-08T12:01:56.999Z,2.87
2019-01-08T12:04:19.967Z,4.20
2019-01-08T12:06:48.850Z,1.97
2019-01-08T12:09:17.804Z,3.90
2019-01-08T12:11:46.965Z,4.03
2019-01-08T12:14:15.843Z,2.80
2019-01-08T12:16:44.749Z,3.67
2019-01-08T12:19:13.562Z,4.17
2019-01-08T12:21:42.833Z,4.47
2019-01-08T12:24:11.788Z,3.63
2019-01-08T12:26:40.674Z,2.30
2019-01-08T12:29:09.817Z,3.30
2019-01-08T12:31:38.951Z,2.80
2019-01-08T12:34:07.803Z,4.90
2019-01-08T12:36:37.601Z,2.27
2019-01-08T12:39:08.338Z,3.00
2019-01-08T12:41:37.423Z,2.30
2019-01-08T12:44:06.248Z,2.87
2019-01-08T12:46:35.101Z,3.00
2019-01-08T12:49:04.255Z,2.30
2019-01-08T12:51:33.158Z,2.30
2019-01-08T12:54:02.322Z,4.13
2019-01-08T12:56:31.393Z,4.70
2019-01-08T12:59:00.675Z,3.13
2019-01-08T13:01:30.584Z,2.40
2019-01-08T13:03:59.379Z,3.03
2019-01-08T13:06:28.615Z,2.60
2019-01-08T13:08:57.819Z,3.73
2019-01-08T13:11:26.699Z,3.10
2019-01-08T13:13:55.513Z,5.80
2019-01-08T13:16:24.384Z,2.93
2019-01-08T13:18:53.267Z,4.70
2019-01-08T13:21:22.223Z,3.20
2019-01-08T13:23:51.036Z,3.20
2019-01-08T13:26:20.229Z,4.57
2019-01-08T13:28:49.092Z,3.13
2019-01-08T13:31:18.020Z,3.03
2019-01-08T13:33:46.832Z,3.80
2019-01-08T13:36:15.845Z,5.30
2019-01-08T13:38:44.759Z,3.87
2019-01-08T13:41:14.003Z,5.10
2019-01-08T13:43:43.242Z,3.90
2019-01-08T13:46:12.117Z,3.50
2019-01-08T13:48:40.996Z,3.50
2019-01-08T13:51:09.820Z,5.40
2019-01-08T13:53:38.718Z,4.20
2019-01-08T13:56:07.966Z,4.90
2019-01-08T13:58:37.376Z,3.37
2019-01-08T14:01:06.182Z,3.93
2019-01-08T14:03:35.010Z,3.90
2019-01-08T14:06:03.908Z,2.63
2019-01-08T14:08:32.702Z,2.53
2019-01-08T14:11:01.513Z,1.70
2019-01-08T14:13:30.579Z,2.13
2019-01-08T14:15:59.421Z,2.87
2019-01-08T14:18:28.318Z,2.70
2019-01-08T14:20:57.706Z,1.20
2019-01-08T14:23:26.921Z,2.20
2019-01-08T14:25:55.893Z,1.30
2019-01-08T14:28:24.706Z,1.90
2019-01-08T14:30:53.529Z,2.20
2019-01-08T14:33:22.459Z,1.70
2019-01-08T14:35:51.616Z,3.10
2019-01-08T14:38:20.521Z,3.07
2019-01-08T14:40:49.727Z,3.53
2019-01-08T14:43:18.866Z,2.83
2019-01-08T14:45:47.995Z,2.50
2019-01-08T14:48:17.155Z,3.33
2019-01-08T14:50:46.402Z,4.53
2019-01-08T14:53:15.266Z,3.60
2019-01-08T14:55:44.116Z,3.40
2019-01-08T14:58:12.991Z,2.63
2019-01-08T15:00:42.084Z,3.80
2019-01-08T15:03:11.058Z,1.83
2019-01-08T15:05:39.896Z,2.80
2019-01-08T15:08:08.956Z,3.63
2019-01-08T15:10:37.780Z,4.70
2019-01-08T15:13:06.695Z,3.87
2019-01-08T15:15:35.560Z,4.03
2019-01-08T15:18:05.436Z,4.30
2019-01-08T15:20:34.398Z,3.70
2019-01-08T15:23:03.293Z,5.10
2019-01-08T15:25:32.262Z,4.13
2019-01-08T15:28:01.146Z,3.93
2019-01-08T15:30:30.011Z,3.70
2019-01-08T15:32:59.309Z,3.33
2019-01-08T15:35:28.467Z,4.33
2019-01-08T15:37:57.606Z,2.40
2019-01-08T15:40:26.711Z,2.67
2019-01-08T15:42:56.206Z,2.53
2019-01-08T15:45:25.407Z,3.70
2019-01-08T15:47:54.310Z,3.40
2019-01-08T15:50:23.379Z,3.40
2019-01-08T15:52:52.474Z,4.20
2019-01-08T15:55:21.767Z,3.00
2019-01-08T15:57:50.988Z,3.50
2019-01-08T16:00:20.223Z,4.60
2019-01-08T16:02:49.068Z,3.40
2019-01-08T16:05:17.952Z,4.63
2019-01-08T16:07:46.874Z,3.40
2019-01-08T16:10:15.716Z,3.20
2019-01-08T16:12:44.848Z,3.40
2019-01-08T16:15:14.069Z,4.17
2019-01-08T16:17:43.518Z,3.17
2019-01-08T16:20:12.839Z,3.93
2019-01-08T16:22:41.659Z,4.00
2019-01-08T16:25:10.965Z,3.67
2019-01-08T16:27:39.776Z,3.90
2019-01-08T16:30:08.803Z,3.50
2019-01-08T16:32:37.640Z,4.27
2019-01-08T16:35:07.132Z,3.33
2019-01-08T16:37:36.370Z,4.70
2019-01-08T16:40:06.253Z,2.73
2019-01-08T16:42:35.399Z,2.60
2019-01-08T16:45:04.669Z,2.93
2019-01-08T16:47:33.838Z,2.70
2019-01-08T16:50:02.717Z,2.37
2019-01-08T16:52:31.537Z,2.10
2019-01-08T16:55:00.423Z,4.10
2019-01-08T16:57:29.286Z,3.60
2019-01-08T16:59:58.087Z,4.03
2019-01-08T17:02:27.397Z,3.33
2019-01-08T17:04:56.278Z,4.80
2019-01-08T17:07:25.134Z,3.73
2019-01-08T17:09:54.309Z,3.00
2019-01-08T17:12:23.116Z,3.40
2019-01-08T17:14:52.016Z,3.50
2019-01-08T17:17:21.321Z,3.30
2019-01-08T17:19:50.185Z,4.43
2019-01-08T17:22:18.995Z,3.67
2019-01-08T17:24:47.844Z,4.43
2019-01-08T17:27:16.989Z,2.90
2019-01-08T17:29:46.415Z,2.93
2019-01-08T17:32:15.238Z,4.67
2019-01-08T17:34:44.379Z,3.20
2019-01-08T17:37:13.587Z,3.33
2019-01-08T17:39:42.467Z,2.67
2019-01-08T17:42:11.290Z,4.20
2019-01-08T17:44:40.827Z,1.97
2019-01-08T17:47:09.963Z,3.60
2019-01-08T17:49:38.792Z,4.50
2019-01-08T17:52:07.630Z,4.83
2019-01-08T17:54:37.499Z,4.07
2019-01-08T17:57:06.437Z,2.73
2019-01-08T17:59:35.544Z,4.87
2019-01-08T18:02:11.150Z,2.60
2019-01-08T18:04:40.066Z,2.70
2019-01-08T18:07:09.306Z,4.37
2019-01-08T18:09:38.304Z,2.20
2019-01-08T18:12:07.472Z,2.67
2019-01-08T18:14:36.720Z,2.33
2019-01-08T18:17:05.897Z,2.07
2019-01-08T18:19:34.880Z,3.40
2019-01-08T18:22:04.177Z,3.50
2019-01-08T18:24:33.536Z,3.00
2019-01-08T18:27:02.443Z,3.97
2019-01-08T18:29:31.265Z,3.60
2019-01-08T18:32:00.166Z,2.10
2019-01-08T18:34:29.065Z,1.67
2019-01-08T18:36:57.938Z,3.17
2019-01-08T18:39:26.855Z,4.60
2019-01-08T18:41:55.755Z,3.00
2019-01-08T18:44:25.004Z,6.20
2019-01-08T18:46:53.796Z,2.50
2019-01-08T18:49:22.787Z,2.93
2019-01-08T18:51:51.750Z,5.13
2019-01-08T18:54:20.547Z,3.10
2019-01-08T18:56:49.427Z,2.63
2019-01-08T18:59:18.692Z,2.47
2019-01-08T19:01:47.552Z,2.87
2019-01-08T19:04:17.015Z,3.47
2019-01-08T19:06:46.497Z,2.13
2019-01-08T19:09:30.282Z,3.57
2019-01-08T19:11:59.408Z,2.77
2019-01-08T19:14:31.491Z,3.00
2019-01-08T19:17:00.427Z,3.30
2019-01-08T19:19:29.318Z,4.43
2019-01-08T19:21:58.189Z,3.93
2019-01-08T19:24:27.466Z,3.20
2019-01-08T19:26:58.377Z,5.17
2019-01-08T19:29:26.959Z,3.30
2019-01-08T19:31:55.951Z,2.30
2019-01-08T19:34:24.833Z,2.23
2019-01-08T19:36:54.149Z,3.10
2019-01-08T19:39:23.024Z,2.10
2019-01-08T19:41:52.278Z,4.43
2019-01-08T19:44:21.283Z,3.73
2019-01-08T19:46:50.231Z,2.00
2019-01-08T19:49:19.044Z,2.60
2019-01-08T19:51:47.927Z,2.73
2019-01-08T19:54:17.194Z,2.23
2019-01-08T19:56:45.984Z,3.40
2019-01-08T19:59:15.153Z,3.30
2019-01-08T20:01:44.096Z,2.67
2019-01-08T20:04:17.714Z,2.70
2019-01-08T20:06:44.151Z,3.40
2019-01-08T20:09:13.014Z,4.67
2019-01-08T20:11:41.963Z,2.80
2019-01-08T20:14:11.655Z,2.93
2019-01-08T20:16:40.487Z,3.60
2019-01-08T20:19:09.370Z,3.70
2019-01-08T20:21:39.000Z,2.13
2019-01-08T20:24:08.153Z,4.27
2019-01-08T20:26:36.987Z,3.53
2019-01-08T20:29:06.237Z,4.57
2019-01-08T20:31:35.052Z,3.43
2019-01-08T20:34:04.127Z,2.90
2019-01-08T20:36:32.947Z,3.70
2019-01-08T20:39:01.845Z,3.73
2019-01-08T20:41:30.774Z,1.77
2019-01-08T20:43:59.594Z,3.60
2019-01-08T20:46:28.530Z,3.70
2019-01-08T20:48:57.488Z,2.63
2019-01-08T20:51:26.980Z,3.20
2019-01-08T20:53:56.208Z,2.23
2019-01-08T20:56:25.466Z,3.30
2019-01-08T20:58:54.558Z,2.67
2019-01-08T21:01:23.472Z,2.53
2019-01-08T21:03:52.353Z,2.80
2019-01-08T21:06:21.213Z,4.00
2019-01-08T21:08:50.032Z,3.63
2019-01-08T21:11:18.951Z,3.77
2019-01-08T21:13:47.747Z,3.43
2019-01-08T21:16:16.586Z,6.40
2019-01-08T21:18:45.442Z,3.17
2019-01-08T21:21:14.309Z,2.77
2019-01-08T21:23:43.124Z,2.27
2019-01-08T21:26:12.274Z,2.77
2019-01-08T21:28:41.209Z,2.40
2019-01-08T21:31:10.951Z,3.37
2019-01-08T21:33:40.429Z,3.80
2019-01-08T21:36:09.255Z,3.30
2019-01-08T21:38:38.885Z,3.03
2019-01-08T21:41:07.891Z,3.97
2019-01-08T21:43:36.736Z,4.13
2019-01-08T21:46:06.028Z,2.37
2019-01-08T21:48:34.823Z,3.47
2019-01-08T21:51:03.642Z,3.83
2019-01-08T21:53:32.591Z,2.07
2019-01-08T21:56:01.585Z,4.47
2019-01-08T21:58:30.383Z,3.20
2019-01-08T22:00:59.344Z,4.57
2019-01-08T22:03:28.233Z,2.00
2019-01-08T22:05:57.112Z,2.40
2019-01-08T22:08:25.894Z,2.97
2019-01-08T22:10:54.870Z,2.77
2019-01-08T22:13:23.723Z,3.27
2019-01-08T22:15:52.775Z,2.33
2019-01-08T22:18:21.891Z,2.07
2019-01-08T22:20:50.747Z,2.10
2019-01-08T22:23:19.595Z,2.40
2019-01-08T22:25:48.480Z,3.70
2019-01-08T22:28:17.363Z,4.37
2019-01-08T22:30:46.147Z,2.57
2019-01-08T22:33:14.975Z,3.50
2019-01-08T22:35:44.147Z,3.17
2019-01-08T22:38:13.036Z,2.40
2019-01-08T22:40:41.972Z,3.03
2019-01-08T22:43:10.787Z,3.10
2019-01-08T22:45:39.608Z,3.20
2019-01-08T22:48:08.523Z,3.50
2019-01-08T22:50:37.383Z,3.30
2019-01-08T22:53:06.947Z,2.10
2019-01-08T22:55:35.807Z,2.40
2019-01-08T22:58:04.718Z,2.60
2019-01-08T23:00:51.975Z,1.70
2019-01-08T23:03:21.894Z,2.57
2019-01-08T23:05:51.619Z,2.73
2019-01-08T23:08:21.183Z,2.17
2019-01-08T23:10:50.231Z,3.40
2019-01-08T23:13:19.162Z,2.77
2019-01-08T23:15:48.211Z,3.50
2019-01-08T23:18:17.240Z,3.87
2019-01-08T23:20:46.028Z,3.67
2019-01-08T23:23:15.308Z,3.67
2019-01-08T23:25:44.433Z,2.87
2019-01-08T23:28:13.395Z,2.20
2019-01-08T23:30:42.258Z,1.60
2019-01-08T23:33:11.235Z,3.67
2019-01-08T23:35:40.039Z,2.40
2019-01-08T23:38:09.052Z,1.60
2019-01-08T23:40:38.011Z,2.53
2019-01-08T23:43:06.925Z,2.20
2019-01-08T23:45:36.028Z,2.50
2019-01-08T23:48:05.055Z,3.63
2019-01-08T23:50:34.270Z,2.97
2019-01-08T23:53:07.384Z,2.80
2019-01-08T23:55:40.109Z,2.97
2019-01-08T23:58:12.457Z,3.90
